Detall de PIREP

Printer-friendly versionPDF version

[2012/12/23 15:59:00]
Flight IATA:CT1008
Pilot Number:042
Company ICAO:CAT
Aircraft Type:MD11/E
PAX:0
Aircraft Registration:CARGO
Departing Airport: OMDB
Destination Airport: VCBI
Alternate Airport:VOTV
Online: VATSIM
Route:TARDI N629 GIDAN P570 EMURU M300 MDI R461 KAT
Flight Level:F350
No Slew and time accel
No pause
Crash detect
Detect pilot in Cockpit between each 30 and 45 minutes
15:59 Zero fuel Weight: 461299 Lbs, Fuel Weight: 119960 Lbs
15:59 VATSIM:OMDB 231500Z 30005KT CAVOK 25/19 Q1017 NOSIG
15:59 VATSIM:VCBI 231510Z 03007KT 9999 SCT016 BKN100 25/22 Q1011 NOSIG
15:59 VOICE CATALONIAN/EMERGENCIA SRI LANKA
16:21 Parking Brakes off
16:38 Take-off
16:38 Take off Weight: 578153 Lbs
16:38 Wind: 240º @ 003 Knots Heading: 300º
16:38 POS N25º 15´ 40´´ E055º 21´ 22´´
16:38 Gear Up: 183 Knots
16:38 Flaps:5 at 183 Knots
16:38 Flaps:4 at 189 Knots
16:38 Flaps:3 at 190 Knots
16:38 Flaps:2 at 192 Knots
16:38 Flaps:1 at 193 Knots
16:39 Flaps:0 at 199 Knots
16:53 Wind:298º@013 Knots Heading: 131º Ground Speed: 492 Knots Altitude 28120 ft
17:08 Wind:335º@004 Knots Heading: 123º Ground Speed: 492 Knots Altitude 33080 ft
17:23 Wind:312º@008 Knots Heading: 129º Ground Speed: 495 Knots Altitude 33077 ft
17:27 TOC
17:27 Fuel Weight: 94680 Lb
17:38 Wind:285º@013 Knots Heading: 122º Ground Speed: 498 Knots Altitude 35088 ft
17:53 Wind:283º@015 Knots Heading: 123º Ground Speed: 499 Knots Altitude 35085 ft
18:08 Wind:282º@017 Knots Heading: 124º Ground Speed: 500 Knots Altitude 35059 ft
18:23 Wind:329º@009 Knots Heading: 122º Ground Speed: 492 Knots Altitude 35026 ft
18:38 Wind:029º@008 Knots Heading: 122º Ground Speed: 486 Knots Altitude 34996 ft
18:53 Wind:045º@010 Knots Heading: 122º Ground Speed: 484 Knots Altitude 34986 ft
19:08 Wind:057º@009 Knots Heading: 121º Ground Speed: 484 Knots Altitude 34973 ft
19:23 Wind:048º@003 Knots Heading: 122º Ground Speed: 487 Knots Altitude 34960 ft
19:38 Wind:036º@000 Knots Heading: 124º Ground Speed: 490 Knots Altitude 34960 ft
19:53 Wind:050º@004 Knots Heading: 121º Ground Speed: 483 Knots Altitude 34931 ft
20:08 Wind:037º@014 Knots Heading: 145º Ground Speed: 490 Knots Altitude 34931 ft
20:11 TOD
20:11 Fuel Weight: 47367 Lb
20:23 Wind:030º@026 Knots Heading: 157º Ground Speed: 301 Knots Altitude 12765 ft
20:24 Flaps:2 at 231 Knots
20:24 Flaps:3 at 229 Knots
20:24 Flaps:4 at 228 Knots
20:24 Flaps:1 at 227 Knots
20:24 Flaps:4 at 226 Knots
20:31 Gear Down: 181 Knots
20:31 Flaps:5 at 182 Knots
20:31 Flaps:4 at 184 Knots
20:31 Flaps:5 at 182 Knots
20:31 Flaps:6 at 182 Knots
20:31 Flaps:7 at 182 Knots
20:31 Flaps:8 at 177 Knots
20:31 Flaps:7 at 178 Knots
20:32 Flaps:8 at 172 Knots
20:34 TouchDown:Rate -151 ft/min Speed: 164 Knots
20:35 VATSIM:VCBI 232010Z 03009KT 9999 FEW012 BKN016 BKN100 24/22 Q1009 NOSIG
20:35 Land
20:35 Wind:033º@009 Knots
20:35 Heading: 037º
20:35 Flight Duration: 03:57
20:35 Landing Weight: 503813 Lbs
20:35 POS N07º 10´ 47´´ E079º 52´ 58´´
20:36 Parking brakes on
20:36 Block to Block Duration: 04:15
20:36 Final Fuel: 42396 Lbls
20:36 Spent Fuel: 77564 Lbls
20:36 Flight Length: 1843 NM
20:36 TOD Land Length: 126 NM

Exportar CSV

Powered by Drupal - Modified by Danger4k